ADDS TAF Board (Experimental) INFO

IDs: Format: Expanded Condensed

Updated at: 0620 UTC 22 Dec 2014

KMSP - Minneapolis-St Paul, MN, US

Issued at 0520 UTC 22 Dec 2014
Time0614Z22/07Z22/08Z22/09Z22/10Z22/11Z22/12Z22/13Z22/14Z22/15Z22/16Z22/17Z22/18Z22/19Z
TypeOBSPRVLPRVLPRVLPRVLPRVLPRVLPRVLPRVLPRVLPRVLPRVLPRVLPRVL
VIS2.55552222222221.5
CIG67774444444446
CoverOVCOVCOVCOVCOVCOVCOVCOVCOVCOVCOVCOVCOVCOVC
FltCatIFRIFRIFRIFRLIFRLIFRLIFRLIFRLIFRLIFRLIFRLIFRLIFRIFR
WXBRBRBRBR-DZ BR-DZ BR-DZ BR-DZ BR-DZ BR-DZ BR-DZ BR-DZ BR-DZ BR-RA BR
WDir150150150150140140140140140140140140140130
WSpd810101011111111111111111112
WGst----------------------------
R04/22
XWnd-8-10-10-10-11-11-11-11-11-11-11-11-11-12
HWnd-2-3-3-3-1-1-1-1-1-1-1-1-11
R12/30
XWnd-4-5-5-5-4-4-4-4-4-4-4-4-4-2
HWnd799910101010101010101012
R17/35
XWnd33335555555558
HWnd89991010101010101010109
Raw TAF
KMSP 220520Z 2206/2312 15010KT 5SM BR OVC007
  FM221000 14011KT 2SM -DZ BR OVC004
  FM221900 13012KT 1 1/2SM -RA BR OVC006
  FM222300 11011KT 3SM -RASN OVC007
  FM230200 08009KT 3/4SM -SN VV003


Raw METAR
KMSP 220614Z 15008KT 2 1/2SM BR OVC006 03/02 A2972 RMK AO2 T00330022 $
KMSP 220553Z 16008KT 7SM OVC008 03/02 A2972 RMK AO2 SLP073 60004 T00330022 10039 20022 400391006 57003 $

TAF Board Legend

Hazard VFR MVFR IFR LIFR
Visibility (sm) >5 3≤X≤5 1≤X<3 <1
Ceiling (100 ft) >30 10≤X≤30 5≤X<10 <5
Wind Speed (kt) <10 10≤X<20 20≤X<30 ≥30
Wind Gust (kt) <15 15≤X<25 25≤X<35 ≥35
Weather No Wx Reported VCTS,-TS,-FZRA TS,FZRA +TS,+FZRA


Page loaded:  06:20 UTC  |   10:20 PM Pacific  |   11:20 PM Mountain  |   12:20 AM Central  |   01:20 AM Eastern

 

ADVISORIES

FORECASTS

FORECASTS

OBSERVATIONS

USER TOOLS

ABOUT US